Time;durP1;ratioP1;P1;durP2;ratioP2;P2;SDS_P1;SDS_P2;PMS_P1;PMS_P2;Temp;Humidity;BMP_temperature;BMP_pressure;BME280_temperature;BME280_humidity;BME280_pressure;Samples;Min_cycle;Max_cycle;Signal;HPM_P1;HPM_P2
2023/09/15 00:00:23;;;;;;;7.73;2.93;;;;;;;;;;5044130;28;20203;-75
2023/09/15 00:02:56;;;;;;;5.67;3.47;;;;;;;;;;5058420;28;20198;-76
2023/09/15 00:05:28;;;;;;;5.53;3.27;;;;;;;;;;5057084;28;20280;-76
2023/09/15 00:08:00;;;;;;;5.73;3.33;;;;;;;;;;5057247;28;20190;-75
2023/09/15 00:10:30;;;;;;;5.87;3.60;;;;;;;;;;5057399;28;20540;-76
2023/09/15 00:12:59;;;;;;;5.57;3.23;;;;;;;;;;5056986;28;20190;-76
2023/09/15 00:15:27;;;;;;;6.93;3.40;;;;;;;;;;5056627;28;20205;-76
2023/09/15 00:17:55;;;;;;;6.37;3.17;;;;;;;;;;5057478;28;20190;-78
2023/09/15 00:20:25;;;;;;;6.47;3.80;;;;;;;;;;5074694;28;20533;-76
2023/09/15 00:22:53;;;;;;;9.27;3.77;;;;;;;;;;5043658;28;20259;-76
2023/09/15 00:25:26;;;;;;;6.07;3.60;;;;;;;;;;5061041;28;20197;-76
2023/09/15 00:31:57;;;;;;;7.20;3.63;;;;;;;;;;5079037;28;20493;-77
2023/09/15 00:34:26;;;;;;;9.93;3.73;;;;;;;;;;5044297;28;20213;-76
2023/09/15 00:40:50;;;;;;;6.50;3.33;;;;;;;;;;5078797;28;20191;-75
2023/09/15 00:43:20;;;;;;;5.80;2.97;;;;;;;;;;5053008;28;20292;-76
2023/09/15 00:45:52;;;;;;;5.93;2.87;;;;;;;;;;5078470;28;20276;-76
2023/09/15 00:52:37;;;;;;;5.47;2.83;;;;;;;;;;5078495;28;20315;-76
2023/09/15 00:59:14;;;;;;;5.20;2.70;;;;;;;;;;5078503;28;20153;-76
2023/09/15 01:01:43;;;;;;;5.77;3.00;;;;;;;;;;5044532;28;20206;-76
2023/09/15 01:04:12;;;;;;;6.47;3.80;;;;;;;;;;5044053;28;20182;-76
2023/09/15 01:49:29;;;;;;;6.77;3.17;;;;;;;;;;5077598;28;20181;-76
2023/09/15 01:56:09;;;;;;;6.17;2.90;;;;;;;;;;5076588;28;20213;-76
2023/09/15 01:58:43;;;;;;;6.23;3.00;;;;;;;;;;5060080;28;20154;-75
2023/09/15 02:01:30;;;;;;;6.13;3.33;;;;;;;;;;5062484;28;20236;-75
2023/09/15 02:08:03;;;;;;;6.87;3.30;;;;;;;;;;5077024;28;20173;-76
2023/09/15 02:14:37;;;;;;;7.97;3.73;;;;;;;;;;5076921;28;20153;-77
2023/09/15 02:17:07;;;;;;;8.33;3.47;;;;;;;;;;5075562;28;20240;-77
2023/09/15 02:19:35;;;;;;;10.80;3.97;;;;;;;;;;5059254;28;20259;-77
2023/09/15 02:22:02;;;;;;;8.30;4.53;;;;;;;;;;5040688;28;20751;-77
2023/09/15 02:28:30;;;;;;;6.30;3.47;;;;;;;;;;5075150;28;20492;-77
2023/09/15 02:30:56;;;;;;;8.83;3.90;;;;;;;;;;5058378;28;20189;-76
2023/09/15 02:33:23;;;;;;;10.97;3.80;;;;;;;;;;5075924;28;20537;-76
2023/09/15 02:35:50;;;;;;;8.90;3.73;;;;;;;;;;5075078;28;20185;-76
2023/09/15 02:38:17;;;;;;;8.60;4.77;;;;;;;;;;5057786;28;20209;-76
2023/09/15 02:40:48;;;;;;;8.73;3.63;;;;;;;;;;5059123;28;20197;-76
2023/09/15 02:43:19;;;;;;;6.87;3.53;;;;;;;;;;5057942;28;20221;-72
2023/09/15 02:49:40;;;;;;;8.40;3.80;;;;;;;;;;5075141;28;20154;-76
2023/09/15 02:52:08;;;;;;;10.53;3.50;;;;;;;;;;5041103;28;20616;-76
2023/09/15 02:54:42;;;;;;;10.00;3.83;;;;;;;;;;5041164;28;20564;-80
2023/09/15 02:57:19;;;;;;;7.97;3.50;;;;;;;;;;5043444;28;20190;-76
2023/09/15 02:59:58;;;;;;;8.37;3.50;;;;;;;;;;5057605;28;20190;-76
2023/09/15 03:02:27;;;;;;;7.87;3.67;;;;;;;;;;5057637;28;20523;-76
2023/09/15 03:08:57;;;;;;;11.27;4.00;;;;;;;;;;5074571;28;20180;-78
2023/09/15 03:15:24;;;;;;;10.80;4.10;;;;;;;;;;5074429;28;20563;-76
2023/09/15 03:21:53;;;;;;;9.37;4.17;;;;;;;;;;5074823;28;20196;-74
2023/09/15 03:24:20;;;;;;;9.13;4.30;;;;;;;;;;5040317;28;20659;-76
2023/09/15 03:26:47;;;;;;;8.47;4.60;;;;;;;;;;5073787;28;20187;-75
2023/09/15 03:33:17;;;;;;;11.23;4.47;;;;;;;;;;5074221;28;20160;-74
2023/09/15 03:35:47;;;;;;;11.00;4.40;;;;;;;;;;5055985;28;20685;-75
2023/09/15 03:38:14;;;;;;;10.63;4.63;;;;;;;;;;5056512;28;20658;-75
2023/09/15 03:40:41;;;;;;;12.60;4.70;;;;;;;;;;5073953;28;20617;-73
2023/09/15 03:43:08;;;;;;;10.40;4.27;;;;;;;;;;5073997;28;20244;-77
2023/09/15 03:45:35;;;;;;;9.63;3.93;;;;;;;;;;5073210;28;20197;-78
2023/09/15 03:48:02;;;;;;;8.40;4.23;;;;;;;;;;5056070;28;20194;-77
2023/09/15 03:54:29;;;;;;;12.43;4.63;;;;;;;;;;5074885;28;20248;-74
2023/09/15 04:01:00;;;;;;;7.23;3.90;;;;;;;;;;5074110;28;20355;-75
2023/09/15 04:07:28;;;;;;;9.90;4.90;;;;;;;;;;5077572;28;20195;-79
2023/09/15 04:09:56;;;;;;;10.57;5.37;;;;;;;;;;5042304;28;20196;-75
2023/09/15 04:12:24;;;;;;;9.23;5.07;;;;;;;;;;5040859;28;20236;-78
2023/09/15 04:14:50;;;;;;;10.13;5.37;;;;;;;;;;5074569;28;20197;-74
2023/09/15 04:17:18;;;;;;;14.10;5.47;;;;;;;;;;5023573;28;20557;-76
2023/09/15 04:19:46;;;;;;;15.53;4.93;;;;;;;;;;5056377;28;20255;-74
2023/09/15 04:26:12;;;;;;;10.03;4.70;;;;;;;;;;5074242;28;20624;-75
2023/09/15 04:28:39;;;;;;;9.73;5.00;;;;;;;;;;5057253;28;20671;-75
2023/09/15 04:31:07;;;;;;;9.93;4.60;;;;;;;;;;5056375;28;20277;-74
2023/09/15 04:33:35;;;;;;;8.50;4.53;;;;;;;;;;5040740;28;20562;-77
2023/09/15 04:36:03;;;;;;;7.83;4.63;;;;;;;;;;5056032;28;20208;-75
2023/09/15 04:38:37;;;;;;;10.57;5.50;;;;;;;;;;5039607;28;20197;-74
2023/09/15 04:41:07;;;;;;;10.60;4.60;;;;;;;;;;5041979;28;20656;-75
2023/09/15 04:43:34;;;;;;;11.13;4.67;;;;;;;;;;5056052;28;20216;-75
2023/09/15 04:46:01;;;;;;;8.00;4.60;;;;;;;;;;5039808;28;20186;-76
2023/09/15 04:52:29;;;;;;;9.47;4.53;;;;;;;;;;5068269;28;20169;-76
2023/09/15 04:54:58;;;;;;;9.77;4.20;;;;;;;;;;5073061;28;20222;-76
2023/09/15 04:58:09;;;;;;;12.30;4.50;;;;;;;;;;5024944;28;20217;-76
2023/09/15 05:00:37;;;;;;;12.37;4.03;;;;;;;;;;5037213;28;20190;-74
2023/09/15 05:07:07;;;;;;;10.33;4.40;;;;;;;;;;5054021;28;20656;-78
2023/09/15 05:09:41;;;;;;;12.23;4.30;;;;;;;;;;5057022;28;20194;-77
2023/09/15 05:16:18;;;;;;;12.37;4.73;;;;;;;;;;5057608;28;20197;-77
2023/09/15 05:22:47;;;;;;;9.93;4.40;;;;;;;;;;5057061;28;20186;-75
2023/09/15 05:25:16;;;;;;;9.93;4.60;;;;;;;;;;5039749;28;20191;-79
2023/09/15 05:27:45;;;;;;;15.70;4.47;;;;;;;;;;5056198;28;20252;-77
2023/09/15 05:30:15;;;;;;;11.93;4.10;;;;;;;;;;5040556;28;20190;-79
2023/09/15 05:32:42;;;;;;;11.50;4.67;;;;;;;;;;5039838;28;20198;-79
2023/09/15 05:35:10;;;;;;;8.37;4.50;;;;;;;;;;5057099;28;20183;-75
2023/09/15 05:41:38;;;;;;;10.37;4.93;;;;;;;;;;5057520;28;20609;-74
2023/09/15 05:48:04;;;;;;;16.07;4.97;;;;;;;;;;5056909;28;20169;-74
2023/09/15 05:50:31;;;;;;;12.40;5.00;;;;;;;;;;5057700;28;20605;-76
2023/09/15 05:53:00;;;;;;;12.07;5.00;;;;;;;;;;5039519;28;20210;-74
2023/09/15 05:55:33;;;;;;;13.33;4.97;;;;;;;;;;5042991;28;20706;-74
2023/09/15 06:02:02;;;;;;;10.47;4.63;;;;;;;;;;5076515;28;20153;-73
2023/09/15 06:04:38;;;;;;;13.20;5.90;;;;;;;;;;5059966;28;20521;-77
2023/09/15 06:11:10;;;;;;;13.23;5.07;;;;;;;;;;5077029;28;20153;-78
2023/09/15 06:13:37;;;;;;;14.67;5.80;;;;;;;;;;5062295;28;20189;-75
2023/09/15 06:16:06;;;;;;;9.97;5.87;;;;;;;;;;5059602;28;20206;-75
2023/09/15 06:18:43;;;;;;;18.73;6.10;;;;;;;;;;5077160;28;20189;-75
2023/09/15 06:21:14;;;;;;;16.67;5.87;;;;;;;;;;5043133;28;20209;-76
2023/09/15 06:28:07;;;;;;;13.33;5.63;;;;;;;;;;5076977;28;20685;-75
2023/09/15 06:30:58;;;;;;;11.03;5.57;;;;;;;;;;5048930;28;20490;-78
2023/09/15 06:33:34;;;;;;;9.93;4.87;;;;;;;;;;5043989;28;20190;-77
2023/09/15 06:36:04;;;;;;;10.90;4.80;;;;;;;;;;5077177;28;20194;-78
2023/09/15 06:42:26;;;;;;;9.80;4.50;;;;;;;;;;5076585;28;20551;-76
2023/09/15 06:44:58;;;;;;;10.80;5.17;;;;;;;;;;5044153;28;20190;-71
2023/09/15 06:47:25;;;;;;;10.87;5.00;;;;;;;;;;5041191;28;20186;-75
2023/09/15 06:53:47;;;;;;;10.13;5.27;;;;;;;;;;5075933;28;20248;-75
2023/09/15 06:56:16;;;;;;;13.60;5.10;;;;;;;;;;5057891;28;20312;-76
2023/09/15 06:58:44;;;;;;;9.17;4.63;;;;;;;;;;5057552;28;20200;-75
2023/09/15 07:05:15;;;;;;;7.60;4.27;;;;;;;;;;5075528;28;20518;-75
2023/09/15 07:07:46;;;;;;;5.47;4.03;;;;;;;;;;5058288;28;20653;-75
2023/09/15 07:10:13;;;;;;;10.80;4.60;;;;;;;;;;5057313;28;20182;-75
2023/09/15 07:12:40;;;;;;;12.73;4.50;;;;;;;;;;5057044;28;20182;-76
2023/09/15 07:15:09;;;;;;;14.13;4.50;;;;;;;;;;5040845;28;20276;-76
2023/09/15 07:17:38;;;;;;;9.97;4.70;;;;;;;;;;5042159;28;20499;-76
2023/09/15 07:20:07;;;;;;;8.47;4.40;;;;;;;;;;5058640;28;20265;-75
2023/09/15 07:22:41;;;;;;;9.90;3.57;;;;;;;;;;5058851;28;20209;-76
2023/09/15 07:25:12;;;;;;;8.13;3.17;;;;;;;;;;5056895;28;20190;-76
2023/09/15 07:27:43;;;;;;;5.47;2.93;;;;;;;;;;5042067;28;20171;-76
2023/09/15 07:30:12;;;;;;;9.60;2.80;;;;;;;;;;5074942;28;20182;-76
2023/09/15 07:32:40;;;;;;;4.40;2.00;;;;;;;;;;5075378;28;20206;-76
2023/09/15 07:35:09;;;;;;;7.20;2.57;;;;;;;;;;5074910;28;20190;-76
2023/09/15 07:37:40;;;;;;;3.47;2.00;;;;;;;;;;5072786;28;20190;-76
2023/09/15 07:40:10;;;;;;;6.23;2.17;;;;;;;;;;5074104;28;20189;-77
2023/09/15 07:46:30;;;;;;;4.27;2.60;;;;;;;;;;5073999;28;20166;-76
2023/09/15 07:52:50;;;;;;;2.53;1.50;;;;;;;;;;5074177;28;20525;-77
2023/09/15 07:55:17;;;;;;;1.57;1.13;;;;;;;;;;5056117;28;20222;-75
2023/09/15 07:57:44;;;;;;;2.53;1.50;;;;;;;;;;5056373;28;20680;-74
2023/09/15 08:00:12;;;;;;;1.70;1.10;;;;;;;;;;5074785;28;20189;-75
2023/09/15 08:02:39;;;;;;;1.80;1.17;;;;;;;;;;5040013;28;20657;-75
2023/09/15 08:05:09;;;;;;;2.60;1.10;;;;;;;;;;5056334;28;20247;-76
2023/09/15 08:11:40;;;;;;;2.23;1.17;;;;;;;;;;5074281;28;20144;-76
2023/09/15 08:14:07;;;;;;;2.07;1.10;;;;;;;;;;5074462;28;20263;-76
2023/09/15 08:16:34;;;;;;;1.83;1.00;;;;;;;;;;5056840;28;20255;-76
2023/09/15 08:19:01;;;;;;;3.57;1.33;;;;;;;;;;5057309;28;20182;-76
2023/09/15 08:21:30;;;;;;;1.73;1.27;;;;;;;;;;5040334;28;20197;-77
2023/09/15 08:24:00;;;;;;;3.23;1.60;;;;;;;;;;5041040;28;20185;-76
2023/09/15 08:26:29;;;;;;;2.53;1.30;;;;;;;;;;5057107;28;20280;-76
2023/09/15 08:29:11;;;;;;;1.97;1.30;;;;;;;;;;5056609;28;20283;-76
2023/09/15 08:31:56;;;;;;;3.73;1.40;;;;;;;;;;5059415;28;20174;-76
2023/09/15 08:34:26;;;;;;;1.67;1.20;;;;;;;;;;5040053;28;20621;-76
2023/09/15 08:36:53;;;;;;;2.60;1.43;;;;;;;;;;5056130;28;20197;-76
2023/09/15 08:39:21;;;;;;;5.27;1.80;;;;;;;;;;5055686;28;20182;-76
2023/09/15 08:41:52;;;;;;;2.93;1.30;;;;;;;;;;5056838;28;20253;-75
2023/09/15 08:48:24;;;;;;;2.40;1.60;;;;;;;;;;5077433;28;20600;-76
2023/09/15 08:54:51;;;;;;;2.87;1.20;;;;;;;;;;5077960;28;20426;-76
2023/09/15 09:01:31;;;;;;;4.47;1.47;;;;;;;;;;5078053;28;20229;-76
2023/09/15 09:04:05;;;;;;;2.33;1.57;;;;;;;;;;5045935;28;20185;-75
2023/09/15 09:10:45;;;;;;;2.23;1.30;;;;;;;;;;5077829;28;20211;-76
2023/09/15 09:13:12;;;;;;;1.73;1.00;;;;;;;;;;5076953;28;20532;-75
2023/09/15 09:19:58;;;;;;;1.90;1.00;;;;;;;;;;5078361;28;20152;-76
2023/09/15 09:22:25;;;;;;;1.20;1.00;;;;;;;;;;5077529;28;20224;-75
2023/09/15 09:24:56;;;;;;;1.57;1.10;;;;;;;;;;5077183;28;20313;-75
2023/09/15 09:27:34;;;;;;;3.43;1.00;;;;;;;;;;5061292;28;20195;-75
2023/09/15 09:30:03;;;;;;;1.60;0.80;;;;;;;;;;5042873;28;20193;-76
2023/09/15 09:32:30;;;;;;;1.93;0.83;;;;;;;;;;5042670;28;20182;-76
2023/09/15 09:34:57;;;;;;;2.00;0.90;;;;;;;;;;5077997;28;20584;-75
2023/09/15 09:41:20;;;;;;;2.73;1.10;;;;;;;;;;5077712;28;20232;-77
2023/09/15 09:44:06;;;;;;;2.40;0.80;;;;;;;;;;5078357;28;20206;-72
2023/09/15 09:46:36;;;;;;;1.57;0.90;;;;;;;;;;5076581;28;20184;-72
2023/09/15 09:49:12;;;;;;;2.63;0.93;;;;;;;;;;5044151;28;20189;-71
2023/09/15 09:51:42;;;;;;;2.20;0.90;;;;;;;;;;5022624;28;20197;-71
2023/09/15 09:54:10;;;;;;;2.67;0.97;;;;;;;;;;5054604;28;20614;-72
2023/09/15 10:00:41;;;;;;;3.83;0.90;;;;;;;;;;5076329;28;20153;-74
2023/09/15 10:03:09;;;;;;;2.27;1.20;;;;;;;;;;5059363;28;20205;-76
2023/09/15 10:09:31;;;;;;;3.27;1.07;;;;;;;;;;5076529;28;20164;-76
2023/09/15 10:15:53;;;;;;;1.97;0.80;;;;;;;;;;5076286;28;20259;-74
2023/09/15 10:18:21;;;;;;;1.13;1.00;;;;;;;;;;5042151;28;20268;-74
2023/09/15 10:20:49;;;;;;;1.63;1.00;;;;;;;;;;5058390;28;20182;-73
2023/09/15 10:27:18;;;;;;;2.40;1.13;;;;;;;;;;5075717;28;20551;-72
2023/09/15 10:29:46;;;;;;;1.20;0.93;;;;;;;;;;5058002;28;20193;-74
2023/09/15 10:32:17;;;;;;;2.00;1.17;;;;;;;;;;5058023;28;20182;-74
2023/09/15 10:34:45;;;;;;;2.47;0.80;;;;;;;;;;5057946;28;20652;-73
2023/09/15 10:37:13;;;;;;;2.67;0.93;;;;;;;;;;5041623;28;20232;-71
2023/09/15 10:39:43;;;;;;;1.10;0.90;;;;;;;;;;5042007;28;20199;-80
2023/09/15 10:42:11;;;;;;;2.40;1.00;;;;;;;;;;5042058;28;20190;-73
2023/09/15 10:48:39;;;;;;;2.03;0.90;;;;;;;;;;5075863;28;20497;-74
2023/09/15 10:51:07;;;;;;;2.63;0.90;;;;;;;;;;5041787;28;20218;-75
2023/09/15 10:54:01;;;;;;;1.83;1.03;;;;;;;;;;5040870;28;20224;-74
2023/09/15 11:00:27;;;;;;;1.60;1.10;;;;;;;;;;5075156;28;20164;-74
2023/09/15 11:06:53;;;;;;;1.53;0.90;;;;;;;;;;5074449;28;20210;-75
2023/09/15 11:09:21;;;;;;;1.50;0.80;;;;;;;;;;5057274;28;20181;-74
2023/09/15 11:15:42;;;;;;;1.97;1.00;;;;;;;;;;5074976;28;20235;-72
2023/09/15 11:18:12;;;;;;;1.97;1.10;;;;;;;;;;5057344;28;20193;-72
2023/09/15 11:20:41;;;;;;;2.00;0.90;;;;;;;;;;5041693;28;20235;-74
2023/09/15 11:23:08;;;;;;;0.93;0.80;;;;;;;;;;5074887;28;20240;-74
2023/09/15 11:25:35;;;;;;;1.23;1.03;;;;;;;;;;5057630;28;20647;-74
2023/09/15 11:28:03;;;;;;;2.10;0.80;;;;;;;;;;5074681;28;20243;-76
2023/09/15 11:30:30;;;;;;;1.67;0.90;;;;;;;;;;5074781;28;20512;-76
2023/09/15 11:33:01;;;;;;;1.77;1.03;;;;;;;;;;5075373;28;20194;-76
2023/09/15 11:35:29;;;;;;;5.70;1.20;;;;;;;;;;5056959;28;20193;-76
2023/09/15 11:37:55;;;;;;;2.07;1.10;;;;;;;;;;5073710;28;20182;-76
2023/09/15 11:40:23;;;;;;;1.07;0.90;;;;;;;;;;5073459;28;20229;-76
2023/09/15 11:42:51;;;;;;;1.90;1.10;;;;;;;;;;5056920;28;20194;-74
2023/09/15 11:45:18;;;;;;;1.47;0.93;;;;;;;;;;5076175;28;20198;-78
2023/09/15 11:47:46;;;;;;;3.33;1.10;;;;;;;;;;5057618;28;20316;-77
2023/09/15 11:50:13;;;;;;;3.67;1.00;;;;;;;;;;5057967;28;20204;-77
2023/09/15 11:52:49;;;;;;;1.60;1.03;;;;;;;;;;5074052;28;20192;-78
2023/09/15 11:55:23;;;;;;;2.87;1.17;;;;;;;;;;5031103;28;20225;-75
2023/09/15 11:57:53;;;;;;;2.40;1.00;;;;;;;;;;5021970;28;20193;-75
2023/09/15 12:00:20;;;;;;;2.40;1.10;;;;;;;;;;5053635;28;20196;-75
2023/09/15 12:02:48;;;;;;;5.33;1.57;;;;;;;;;;5021270;28;20180;-74
2023/09/15 12:05:19;;;;;;;1.80;1.10;;;;;;;;;;5054252;28;20203;-75
2023/09/15 12:07:47;;;;;;;2.93;1.20;;;;;;;;;;5037947;28;20171;-75
2023/09/15 12:10:14;;;;;;;1.87;1.20;;;;;;;;;;5020476;28;20280;-74
2023/09/15 12:12:42;;;;;;;3.97;1.10;;;;;;;;;;5020267;28;20211;-74
2023/09/15 12:15:09;;;;;;;3.87;1.10;;;;;;;;;;5054173;28;20183;-75
2023/09/15 12:17:41;;;;;;;1.70;1.13;;;;;;;;;;5053250;28;20225;-73
2023/09/15 12:20:12;;;;;;;2.10;1.10;;;;;;;;;;5021752;28;20228;-77
2023/09/15 12:22:40;;;;;;;1.80;1.07;;;;;;;;;;5037455;28;20187;-76
2023/09/15 12:25:11;;;;;;;2.60;1.10;;;;;;;;;;5036789;28;20207;-77
2023/09/15 12:27:41;;;;;;;1.97;1.13;;;;;;;;;;5037938;28;20211;-78
2023/09/15 12:30:13;;;;;;;3.07;1.20;;;;;;;;;;5039218;28;20196;-78
2023/09/15 12:32:45;;;;;;;3.10;1.17;;;;;;;;;;5039734;28;20259;-74
2023/09/15 12:35:30;;;;;;;2.70;1.20;;;;;;;;;;5025254;28;20208;-76
2023/09/15 12:37:57;;;;;;;3.43;1.13;;;;;;;;;;5037369;28;20204;-73
2023/09/15 12:40:26;;;;;;;1.80;0.97;;;;;;;;;;5056388;28;20192;-78
2023/09/15 12:43:02;;;;;;;2.90;1.10;;;;;;;;;;5025458;28;20279;-72
2023/09/15 12:45:33;;;;;;;2.83;1.20;;;;;;;;;;5036198;28;20346;-73
2023/09/15 12:48:09;;;;;;;2.23;1.00;;;;;;;;;;5057421;28;20246;-71
2023/09/15 12:50:38;;;;;;;1.73;1.13;;;;;;;;;;5054759;28;20183;-73
2023/09/15 12:53:05;;;;;;;1.87;0.90;;;;;;;;;;5039313;28;20191;-73
2023/09/15 12:55:34;;;;;;;2.37;1.20;;;;;;;;;;5022970;28;20566;-76
2023/09/15 12:58:03;;;;;;;5.53;1.37;;;;;;;;;;5053649;28;20190;-76
2023/09/15 13:00:32;;;;;;;1.70;1.10;;;;;;;;;;5036605;28;20277;-74
2023/09/15 13:02:59;;;;;;;1.57;0.93;;;;;;;;;;5053019;28;20539;-75
2023/09/15 13:05:30;;;;;;;2.83;1.30;;;;;;;;;;5053702;28;20220;-75
2023/09/15 13:07:56;;;;;;;2.30;1.10;;;;;;;;;;5055001;28;20183;-75
2023/09/15 13:10:24;;;;;;;2.17;1.20;;;;;;;;;;5063566;28;20193;-78
2023/09/15 13:12:55;;;;;;;1.40;0.97;;;;;;;;;;5044047;28;20271;-75
2023/09/15 13:15:23;;;;;;;2.00;1.20;;;;;;;;;;5036114;28;20193;-75
2023/09/15 13:17:52;;;;;;;2.93;1.07;;;;;;;;;;5036245;28;20530;-77
2023/09/15 13:20:20;;;;;;;3.40;1.30;;;;;;;;;;5053020;28;20193;-77
2023/09/15 13:22:47;;;;;;;2.40;1.20;;;;;;;;;;5053043;28;20194;-76
2023/09/15 13:25:14;;;;;;;3.13;1.07;;;;;;;;;;5035804;28;20207;-75
2023/09/15 13:27:46;;;;;;;2.20;1.00;;;;;;;;;;5037453;28;20210;-77
2023/09/15 13:30:14;;;;;;;2.80;1.27;;;;;;;;;;5040035;28;20222;-78
2023/09/15 13:32:43;;;;;;;1.90;1.20;;;;;;;;;;5041378;28;20186;-80
2023/09/15 13:35:11;;;;;;;2.03;0.90;;;;;;;;;;5040728;28;20256;-76
2023/09/15 13:37:40;;;;;;;3.13;1.13;;;;;;;;;;5039776;28;20188;-76
2023/09/15 13:40:10;;;;;;;5.10;1.40;;;;;;;;;;5039935;28;20634;-76
2023/09/15 13:42:38;;;;;;;2.37;1.07;;;;;;;;;;5058027;28;20190;-75
2023/09/15 13:45:09;;;;;;;4.30;1.20;;;;;;;;;;5039699;28;20681;-76
2023/09/15 13:47:37;;;;;;;2.20;1.00;;;;;;;;;;5056437;28;20171;-78
2023/09/15 13:50:06;;;;;;;11.50;1.93;;;;;;;;;;5057125;28;20223;-78
2023/09/15 13:52:37;;;;;;;2.57;1.27;;;;;;;;;;5040149;28;20244;-77
2023/09/15 13:55:04;;;;;;;1.83;0.90;;;;;;;;;;5030968;28;20657;-76
2023/09/15 13:57:32;;;;;;;2.23;1.07;;;;;;;;;;5057673;28;20261;-79
2023/09/15 14:00:01;;;;;;;3.03;1.33;;;;;;;;;;5023912;28;20243;-75
2023/09/15 14:02:31;;;;;;;2.00;1.00;;;;;;;;;;5057243;28;20189;-75
2023/09/15 14:05:00;;;;;;;2.50;1.10;;;;;;;;;;5038258;28;20209;-75
2023/09/15 14:07:30;;;;;;;3.23;1.27;;;;;;;;;;5037792;28;20199;-75
2023/09/15 14:10:02;;;;;;;2.37;1.00;;;;;;;;;;5039567;28;20201;-76
2023/09/15 14:12:31;;;;;;;2.20;1.00;;;;;;;;;;5055893;28;20186;-73
2023/09/15 14:15:01;;;;;;;3.13;1.00;;;;;;;;;;5039126;28;20207;-74
2023/09/15 14:17:30;;;;;;;2.00;1.00;;;;;;;;;;5054968;28;20254;-74
2023/09/15 14:19:58;;;;;;;2.20;1.00;;;;;;;;;;5022482;28;20544;-74
2023/09/15 14:22:27;;;;;;;1.70;0.80;;;;;;;;;;5055539;28;20231;-75
2023/09/15 14:24:55;;;;;;;1.07;0.80;;;;;;;;;;5038061;28;20233;-72
2023/09/15 14:31:31;;;;;;;1.67;0.80;;;;;;;;;;5056436;28;20621;-76
2023/09/15 14:33:58;;;;;;;2.47;1.10;;;;;;;;;;5055829;28;20218;-75
2023/09/15 14:36:26;;;;;;;1.37;0.80;;;;;;;;;;5022570;28;20195;-75
2023/09/15 14:38:53;;;;;;;2.50;0.90;;;;;;;;;;5056346;28;20214;-74
2023/09/15 14:41:20;;;;;;;2.33;0.80;;;;;;;;;;5055431;28;20232;-75
2023/09/15 14:43:47;;;;;;;2.60;0.97;;;;;;;;;;5056009;28;20191;-75
2023/09/15 14:46:15;;;;;;;1.50;0.80;;;;;;;;;;5056006;28;20199;-75
2023/09/15 14:48:49;;;;;;;2.57;0.70;;;;;;;;;;5038483;28;20629;-76
2023/09/15 14:51:21;;;;;;;1.37;0.70;;;;;;;;;;5040166;28;20625;-76
2023/09/15 14:53:48;;;;;;;2.67;0.70;;;;;;;;;;5055360;28;20191;-76
2023/09/15 14:56:16;;;;;;;1.33;0.70;;;;;;;;;;5054625;28;20246;-76
2023/09/15 14:58:45;;;;;;;1.20;0.80;;;;;;;;;;5056835;28;20187;-75
2023/09/15 15:01:17;;;;;;;2.20;0.87;;;;;;;;;;5047136;28;20202;-76
2023/09/15 15:03:45;;;;;;;1.90;1.00;;;;;;;;;;5055938;28;20171;-75
2023/09/15 15:06:17;;;;;;;2.07;0.90;;;;;;;;;;5038899;28;20194;-75
2023/09/15 15:08:46;;;;;;;1.37;0.83;;;;;;;;;;5055766;28;20187;-76
2023/09/15 15:11:17;;;;;;;2.63;0.73;;;;;;;;;;5038737;28;20214;-74
2023/09/15 15:13:45;;;;;;;1.30;0.60;;;;;;;;;;5056227;28;20285;-78
2023/09/15 15:16:15;;;;;;;1.53;0.80;;;;;;;;;;5037838;28;20598;-77
2023/09/15 15:22:38;;;;;;;4.90;1.00;;;;;;;;;;5055811;28;20166;-77
2023/09/15 15:29:06;;;;;;;2.17;0.90;;;;;;;;;;5055186;28;20660;-75
2023/09/15 15:31:34;;;;;;;0.80;0.70;;;;;;;;;;5038253;28;20190;-76
2023/09/15 15:34:03;;;;;;;2.77;0.87;;;;;;;;;;5022508;28;20203;-78
2023/09/15 15:36:31;;;;;;;1.70;1.00;;;;;;;;;;5056182;28;20183;-77
2023/09/15 15:38:59;;;;;;;2.23;0.90;;;;;;;;;;5023298;28;20576;-77
2023/09/15 15:41:27;;;;;;;1.67;0.87;;;;;;;;;;5055287;28;20217;-76
2023/09/15 15:43:58;;;;;;;1.23;0.63;;;;;;;;;;5022119;28;20199;-75
2023/09/15 15:50:24;;;;;;;1.40;0.97;;;;;;;;;;5035730;28;20193;-76
2023/09/15 15:53:00;;;;;;;3.13;1.00;;;;;;;;;;5003789;28;20582;-77
2023/09/15 15:55:31;;;;;;;2.97;0.60;;;;;;;;;;5026020;28;20247;-76
2023/09/15 15:58:00;;;;;;;3.20;0.80;;;;;;;;;;5002825;28;20287;-76
2023/09/15 16:00:27;;;;;;;1.43;0.73;;;;;;;;;;5018272;28;20191;-76
2023/09/15 16:02:55;;;;;;;1.40;0.77;;;;;;;;;;5018201;28;20180;-76
2023/09/15 16:05:24;;;;;;;1.60;0.80;;;;;;;;;;5018466;28;20238;-76
2023/09/15 16:07:52;;;;;;;1.53;0.77;;;;;;;;;;5018545;28;20265;-77
2023/09/15 16:10:24;;;;;;;1.87;0.90;;;;;;;;;;5035323;28;20184;-78
2023/09/15 16:13:08;;;;;;;2.00;0.87;;;;;;;;;;5036177;28;20175;-78
2023/09/15 16:15:38;;;;;;;1.30;0.90;;;;;;;;;;5035468;28;20195;-77
2023/09/15 16:18:09;;;;;;;1.50;0.83;;;;;;;;;;5002992;28;20195;-78
2023/09/15 16:20:58;;;;;;;1.87;0.80;;;;;;;;;;5005728;28;20214;-78
2023/09/15 16:23:42;;;;;;;1.97;0.60;;;;;;;;;;5022770;28;20160;-77
2023/09/15 16:26:10;;;;;;;1.67;0.80;;;;;;;;;;5036855;28;20206;-78
2023/09/15 16:28:43;;;;;;;2.07;0.90;;;;;;;;;;5003203;28;20193;-78
2023/09/15 16:31:16;;;;;;;3.73;1.00;;;;;;;;;;5021357;28;20198;-79
2023/09/15 16:33:47;;;;;;;2.20;1.00;;;;;;;;;;5020907;28;20226;-79
2023/09/15 16:40:14;;;;;;;1.10;0.80;;;;;;;;;;5034552;28;20609;-79
2023/09/15 16:42:40;;;;;;;1.53;0.77;;;;;;;;;;5002354;28;20218;-80
2023/09/15 16:49:10;;;;;;;2.43;1.07;;;;;;;;;;5036105;28;20158;-79
2023/09/15 16:51:36;;;;;;;2.90;1.00;;;;;;;;;;5035643;28;20263;-78
2023/09/15 16:54:03;;;;;;;3.63;1.50;;;;;;;;;;5018694;28;20198;-79
2023/09/15 16:56:32;;;;;;;2.47;1.20;;;;;;;;;;5058285;28;20254;-79
2023/09/15 16:59:05;;;;;;;2.57;1.50;;;;;;;;;;5040482;28;20190;-79
2023/09/15 17:01:36;;;;;;;1.23;1.13;;;;;;;;;;5038953;28;20159;-79
2023/09/15 17:04:04;;;;;;;4.30;1.30;;;;;;;;;;5057828;28;20187;-79
2023/09/15 17:06:37;;;;;;;3.10;1.47;;;;;;;;;;5026361;28;20214;-79
2023/09/15 17:09:09;;;;;;;5.63;1.97;;;;;;;;;;5059595;28;20164;-80
2023/09/15 17:11:37;;;;;;;2.73;1.43;;;;;;;;;;5040509;28;20187;-80
2023/09/15 17:14:08;;;;;;;3.10;1.23;;;;;;;;;;5027810;28;20201;-80
2023/09/15 17:16:39;;;;;;;2.70;1.20;;;;;;;;;;5061172;28;20601;-80
2023/09/15 17:23:09;;;;;;;2.40;1.20;;;;;;;;;;5060873;28;20260;-79
2023/09/15 17:25:40;;;;;;;3.40;1.67;;;;;;;;;;5040501;28;20213;-80
2023/09/15 17:28:08;;;;;;;2.00;1.30;;;;;;;;;;5039728;28;20195;-79
2023/09/15 17:30:35;;;;;;;5.17;1.70;;;;;;;;;;5056793;28;20206;-79
2023/09/15 17:33:02;;;;;;;2.10;1.30;;;;;;;;;;5039281;28;20197;-79
2023/09/15 17:35:31;;;;;;;3.17;1.90;;;;;;;;;;5038960;28;20191;-79
2023/09/15 17:37:58;;;;;;;4.83;1.60;;;;;;;;;;5039848;28;20182;-80
2023/09/15 17:40:25;;;;;;;4.93;1.90;;;;;;;;;;5038950;28;20182;-79
2023/09/15 17:43:09;;;;;;;3.27;1.90;;;;;;;;;;5041951;28;20230;-82
2023/09/15 17:45:36;;;;;;;5.03;1.97;;;;;;;;;;5056576;28;20202;-79
2023/09/15 17:52:04;;;;;;;5.40;1.83;;;;;;;;;;5076610;28;20192;-80
2023/09/15 17:54:48;;;;;;;2.90;1.97;;;;;;;;;;5075290;28;20567;-79
2023/09/15 17:57:15;;;;;;;8.83;2.50;;;;;;;;;;5076494;28;20189;-80
2023/09/15 17:59:42;;;;;;;5.30;2.10;;;;;;;;;;5058335;28;20186;-80
2023/09/15 18:02:09;;;;;;;4.27;2.20;;;;;;;;;;5076472;28;20186;-81
2023/09/15 18:04:36;;;;;;;3.40;2.00;;;;;;;;;;5058444;28;20191;-82
2023/09/15 18:07:04;;;;;;;5.07;2.20;;;;;;;;;;5075043;28;20186;-82
2023/09/15 18:09:32;;;;;;;3.47;2.07;;;;;;;;;;5041732;28;20189;-82
2023/09/15 18:11:59;;;;;;;5.43;2.30;;;;;;;;;;5059060;28;20186;-82
2023/09/15 18:14:28;;;;;;;6.77;2.40;;;;;;;;;;5075947;28;20182;-81
2023/09/15 18:17:02;;;;;;;4.37;2.23;;;;;;;;;;5074696;28;20201;-80
2023/09/15 18:19:31;;;;;;;3.60;2.47;;;;;;;;;;5075239;28;20182;-82
2023/09/15 18:21:59;;;;;;;3.73;2.27;;;;;;;;;;5058650;28;20556;-81
2023/09/15 18:24:26;;;;;;;4.83;2.30;;;;;;;;;;5055175;28;20228;-82
2023/09/15 18:26:54;;;;;;;3.80;2.10;;;;;;;;;;5038041;28;20202;-82
2023/09/15 18:29:21;;;;;;;5.37;2.00;;;;;;;;;;5038010;28;20198;-82
2023/09/15 18:31:48;;;;;;;7.07;2.73;;;;;;;;;;5054548;28;20190;-80
2023/09/15 18:34:32;;;;;;;2.43;1.90;;;;;;;;;;5055799;28;20182;-81
2023/09/15 18:37:03;;;;;;;3.83;2.00;;;;;;;;;;5056470;28;20175;-80
2023/09/15 18:43:31;;;;;;;3.53;2.13;;;;;;;;;;5055437;28;20204;-81
2023/09/15 18:46:15;;;;;;;4.40;2.10;;;;;;;;;;5054707;28;20237;-81
2023/09/15 18:48:42;;;;;;;6.63;2.90;;;;;;;;;;5054594;28;20262;-81
2023/09/15 18:51:09;;;;;;;8.33;2.40;;;;;;;;;;5037661;28;20621;-80
2023/09/15 18:57:37;;;;;;;5.20;2.43;;;;;;;;;;5055017;28;20268;-82
2023/09/15 19:00:06;;;;;;;9.63;2.60;;;;;;;;;;5054625;28;20187;-81
2023/09/15 19:02:33;;;;;;;8.07;2.53;;;;;;;;;;5037767;28;20194;-82
2023/09/15 19:05:00;;;;;;;9.23;3.03;;;;;;;;;;5037145;28;20661;-82
2023/09/15 19:07:27;;;;;;;7.33;2.83;;;;;;;;;;5055007;28;20736;-82
2023/09/15 19:10:11;;;;;;;8.53;3.80;;;;;;;;;;5037099;28;20171;-82
2023/09/15 19:12:38;;;;;;;5.47;3.27;;;;;;;;;;5037658;28;20284;-82
2023/09/15 19:15:25;;;;;;;5.50;2.67;;;;;;;;;;5055545;28;20456;-81
2023/09/15 19:17:53;;;;;;;8.67;3.10;;;;;;;;;;5037265;28;20628;-80
2023/09/15 19:24:15;;;;;;;8.00;3.20;;;;;;;;;;5054806;28;20175;-76
2023/09/15 19:26:43;;;;;;;15.67;3.83;;;;;;;;;;5036838;28;20687;-73